sensor_id;sensor_type;location;lat;lon;timestamp;P1;durP1;ratioP1;P2;durP2;ratioP2
31910;SDS011;18457;52.432;16.914;2022-11-21T00:01:52;45.80;;;19.30;;
31910;SDS011;18457;52.432;16.914;2022-11-21T00:04:24;39.70;;;19.00;;
31910;SDS011;18457;52.432;16.914;2022-11-21T00:06:56;60.80;;;25.20;;
31910;SDS011;18457;52.432;16.914;2022-11-21T00:09:28;65.70;;;25.20;;
31910;SDS011;18457;52.432;16.914;2022-11-21T00:12:01;60.60;;;26.20;;
31910;SDS011;18457;52.432;16.914;2022-11-21T00:14:34;61.60;;;24.60;;
31910;SDS011;18457;52.432;16.914;2022-11-21T00:19:37;55.00;;;22.40;;
31910;SDS011;18457;52.432;16.914;2022-11-21T00:22:10;55.50;;;24.90;;
31910;SDS011;18457;52.432;16.914;2022-11-21T00:24:42;58.70;;;24.20;;
31910;SDS011;18457;52.432;16.914;2022-11-21T00:27:18;55.50;;;25.50;;
31910;SDS011;18457;52.432;16.914;2022-11-21T00:29:50;51.00;;;24.80;;
31910;SDS011;18457;52.432;16.914;2022-11-21T00:32:22;63.00;;;24.80;;
31910;SDS011;18457;52.432;16.914;2022-11-21T00:34:53;63.60;;;24.50;;
31910;SDS011;18457;52.432;16.914;2022-11-21T00:37:25;60.30;;;26.00;;
31910;SDS011;18457;52.432;16.914;2022-11-21T00:39:57;39.90;;;18.10;;
31910;SDS011;18457;52.432;16.914;2022-11-21T00:42:29;55.50;;;24.30;;
31910;SDS011;18457;52.432;16.914;2022-11-21T00:45:02;42.40;;;17.00;;
31910;SDS011;18457;52.432;16.914;2022-11-21T00:47:34;59.50;;;24.70;;
31910;SDS011;18457;52.432;16.914;2022-11-21T00:50:08;52.80;;;22.80;;
31910;SDS011;18457;52.432;16.914;2022-11-21T00:52:40;60.60;;;25.70;;
31910;SDS011;18457;52.432;16.914;2022-11-21T00:55:12;69.60;;;27.20;;
31910;SDS011;18457;52.432;16.914;2022-11-21T00:57:44;82.90;;;30.50;;
31910;SDS011;18457;52.432;16.914;2022-11-21T01:00:16;88.10;;;33.30;;
31910;SDS011;18457;52.432;16.914;2022-11-21T01:02:49;97.00;;;33.50;;
31910;SDS011;18457;52.432;16.914;2022-11-21T01:05:21;88.60;;;34.10;;
31910;SDS011;18457;52.432;16.914;2022-11-21T01:07:52;90.20;;;32.20;;
31910;SDS011;18457;52.432;16.914;2022-11-21T01:10:25;82.70;;;30.20;;
31910;SDS011;18457;52.432;16.914;2022-11-21T01:12:57;72.80;;;30.60;;
31910;SDS011;18457;52.432;16.914;2022-11-21T01:15:29;66.70;;;28.70;;
31910;SDS011;18457;52.432;16.914;2022-11-21T01:18:02;67.90;;;30.70;;
31910;SDS011;18457;52.432;16.914;2022-11-21T01:20:37;74.90;;;30.60;;
31910;SDS011;18457;52.432;16.914;2022-11-21T01:23:09;75.10;;;30.40;;
31910;SDS011;18457;52.432;16.914;2022-11-21T01:25:41;47.00;;;21.60;;
31910;SDS011;18457;52.432;16.914;2022-11-21T01:28:12;64.30;;;29.50;;
31910;SDS011;18457;52.432;16.914;2022-11-21T01:30:44;70.60;;;30.60;;
31910;SDS011;18457;52.432;16.914;2022-11-21T01:33:16;77.70;;;30.10;;
31910;SDS011;18457;52.432;16.914;2022-11-21T01:35:48;72.50;;;29.70;;
31910;SDS011;18457;52.432;16.914;2022-11-21T01:38:20;61.80;;;26.10;;
31910;SDS011;18457;52.432;16.914;2022-11-21T01:40:57;77.40;;;30.20;;
31910;SDS011;18457;52.432;16.914;2022-11-21T01:43:29;65.50;;;28.90;;
31910;SDS011;18457;52.432;16.914;2022-11-21T01:46:02;52.20;;;25.20;;
31910;SDS011;18457;52.432;16.914;2022-11-21T01:48:41;71.50;;;29.90;;
31910;SDS011;18457;52.432;16.914;2022-11-21T01:51:19;73.90;;;27.90;;
31910;SDS011;18457;52.432;16.914;2022-11-21T01:53:55;74.70;;;29.50;;
31910;SDS011;18457;52.432;16.914;2022-11-21T01:56:31;66.40;;;29.30;;
31910;SDS011;18457;52.432;16.914;2022-11-21T01:59:07;67.50;;;28.40;;
31910;SDS011;18457;52.432;16.914;2022-11-21T02:01:44;68.40;;;29.60;;
31910;SDS011;18457;52.432;16.914;2022-11-21T02:04:20;75.20;;;26.90;;
31910;SDS011;18457;52.432;16.914;2022-11-21T02:06:58;71.40;;;29.00;;
31910;SDS011;18457;52.432;16.914;2022-11-21T02:09:32;70.20;;;29.50;;
31910;SDS011;18457;52.432;16.914;2022-11-21T02:12:07;63.40;;;28.30;;
31910;SDS011;18457;52.432;16.914;2022-11-21T02:14:43;68.20;;;27.90;;
31910;SDS011;18457;52.432;16.914;2022-11-21T02:17:17;73.20;;;28.40;;
31910;SDS011;18457;52.432;16.914;2022-11-21T02:19:51;70.00;;;28.20;;
31910;SDS011;18457;52.432;16.914;2022-11-21T02:22:29;67.20;;;28.50;;
31910;SDS011;18457;52.432;16.914;2022-11-21T02:25:11;71.10;;;29.00;;
31910;SDS011;18457;52.432;16.914;2022-11-21T02:27:45;73.10;;;30.10;;
31910;SDS011;18457;52.432;16.914;2022-11-21T02:30:22;72.40;;;30.10;;
31910;SDS011;18457;52.432;16.914;2022-11-21T02:32:56;62.80;;;28.00;;
31910;SDS011;18457;52.432;16.914;2022-11-21T02:35:28;63.90;;;26.50;;
31910;SDS011;18457;52.432;16.914;2022-11-21T02:38:02;69.90;;;27.70;;
31910;SDS011;18457;52.432;16.914;2022-11-21T02:40:38;65.80;;;26.60;;
31910;SDS011;18457;52.432;16.914;2022-11-21T02:43:13;66.30;;;27.50;;
31910;SDS011;18457;52.432;16.914;2022-11-21T02:45:50;59.60;;;27.70;;
31910;SDS011;18457;52.432;16.914;2022-11-21T02:48:22;61.10;;;26.60;;
31910;SDS011;18457;52.432;16.914;2022-11-21T02:50:54;56.50;;;25.30;;
31910;SDS011;18457;52.432;16.914;2022-11-21T02:53:26;65.00;;;27.00;;
31910;SDS011;18457;52.432;16.914;2022-11-21T02:55:59;61.20;;;26.10;;
31910;SDS011;18457;52.432;16.914;2022-11-21T02:58:32;63.60;;;26.00;;
31910;SDS011;18457;52.432;16.914;2022-11-21T03:01:04;64.30;;;27.50;;
31910;SDS011;18457;52.432;16.914;2022-11-21T03:03:36;60.10;;;26.20;;
31910;SDS011;18457;52.432;16.914;2022-11-21T03:06:08;61.40;;;26.40;;
31910;SDS011;18457;52.432;16.914;2022-11-21T03:08:39;58.00;;;26.50;;
31910;SDS011;18457;52.432;16.914;2022-11-21T03:11:11;68.80;;;26.20;;
31910;SDS011;18457;52.432;16.914;2022-11-21T03:13:43;66.20;;;28.10;;
31910;SDS011;18457;52.432;16.914;2022-11-21T03:16:14;59.70;;;26.00;;
31910;SDS011;18457;52.432;16.914;2022-11-21T03:18:46;58.80;;;23.30;;
31910;SDS011;18457;52.432;16.914;2022-11-21T03:21:18;52.00;;;24.00;;
31910;SDS011;18457;52.432;16.914;2022-11-21T03:23:50;55.40;;;23.40;;
31910;SDS011;18457;52.432;16.914;2022-11-21T03:26:21;56.20;;;24.60;;
31910;SDS011;18457;52.432;16.914;2022-11-21T03:28:53;51.70;;;23.80;;
31910;SDS011;18457;52.432;16.914;2022-11-21T03:31:25;57.10;;;24.30;;
31910;SDS011;18457;52.432;16.914;2022-11-21T03:33:56;59.50;;;25.10;;
31910;SDS011;18457;52.432;16.914;2022-11-21T03:36:28;58.60;;;23.50;;
31910;SDS011;18457;52.432;16.914;2022-11-21T03:39:00;57.80;;;23.20;;
31910;SDS011;18457;52.432;16.914;2022-11-21T03:41:32;56.40;;;22.70;;
31910;SDS011;18457;52.432;16.914;2022-11-21T03:44:04;50.40;;;23.50;;
31910;SDS011;18457;52.432;16.914;2022-11-21T03:46:38;55.30;;;24.30;;
31910;SDS011;18457;52.432;16.914;2022-11-21T03:49:11;55.50;;;24.90;;
31910;SDS011;18457;52.432;16.914;2022-11-21T03:51:44;59.80;;;27.00;;
31910;SDS011;18457;52.432;16.914;2022-11-21T03:54:16;56.60;;;25.60;;
31910;SDS011;18457;52.432;16.914;2022-11-21T03:56:48;38.40;;;17.70;;
31910;SDS011;18457;52.432;16.914;2022-11-21T03:59:20;56.90;;;24.70;;
31910;SDS011;18457;52.432;16.914;2022-11-21T04:01:51;53.60;;;22.70;;
31910;SDS011;18457;52.432;16.914;2022-11-21T04:04:24;50.30;;;23.40;;
31910;SDS011;18457;52.432;16.914;2022-11-21T04:06:56;52.30;;;24.30;;
31910;SDS011;18457;52.432;16.914;2022-11-21T04:09:28;59.60;;;26.20;;
31910;SDS011;18457;52.432;16.914;2022-11-21T04:12:00;56.00;;;25.30;;
31910;SDS011;18457;52.432;16.914;2022-11-21T04:14:35;49.50;;;23.00;;
31910;SDS011;18457;52.432;16.914;2022-11-21T04:17:07;56.10;;;23.80;;
31910;SDS011;18457;52.432;16.914;2022-11-21T04:19:39;59.30;;;23.90;;
31910;SDS011;18457;52.432;16.914;2022-11-21T04:22:10;56.50;;;25.20;;
31910;SDS011;18457;52.432;16.914;2022-11-21T04:24:42;57.20;;;25.60;;
31910;SDS011;18457;52.432;16.914;2022-11-21T04:27:14;60.40;;;25.10;;
31910;SDS011;18457;52.432;16.914;2022-11-21T04:29:46;61.00;;;24.60;;
31910;SDS011;18457;52.432;16.914;2022-11-21T04:32:17;59.70;;;27.30;;
31910;SDS011;18457;52.432;16.914;2022-11-21T04:34:49;59.70;;;25.50;;
31910;SDS011;18457;52.432;16.914;2022-11-21T04:37:21;36.30;;;18.40;;
31910;SDS011;18457;52.432;16.914;2022-11-21T04:39:53;65.30;;;24.70;;
31910;SDS011;18457;52.432;16.914;2022-11-21T04:42:24;52.50;;;23.10;;
31910;SDS011;18457;52.432;16.914;2022-11-21T04:44:57;56.80;;;24.70;;
31910;SDS011;18457;52.432;16.914;2022-11-21T04:47:29;61.20;;;25.50;;
31910;SDS011;18457;52.432;16.914;2022-11-21T04:50:01;58.20;;;25.70;;
31910;SDS011;18457;52.432;16.914;2022-11-21T04:52:33;59.00;;;25.20;;
31910;SDS011;18457;52.432;16.914;2022-11-21T04:55:06;62.50;;;27.30;;
31910;SDS011;18457;52.432;16.914;2022-11-21T04:57:38;61.40;;;28.20;;
31910;SDS011;18457;52.432;16.914;2022-11-21T05:00:12;44.90;;;18.60;;
31910;SDS011;18457;52.432;16.914;2022-11-21T05:02:52;60.60;;;25.20;;
31910;SDS011;18457;52.432;16.914;2022-11-21T05:05:23;61.00;;;26.80;;
31910;SDS011;18457;52.432;16.914;2022-11-21T05:07:55;61.10;;;28.50;;
31910;SDS011;18457;52.432;16.914;2022-11-21T05:10:28;59.50;;;27.80;;
31910;SDS011;18457;52.432;16.914;2022-11-21T05:13:20;58.10;;;27.90;;
31910;SDS011;18457;52.432;16.914;2022-11-21T05:15:56;68.40;;;28.60;;
31910;SDS011;18457;52.432;16.914;2022-11-21T05:18:28;62.80;;;25.90;;
31910;SDS011;18457;52.432;16.914;2022-11-21T05:21:00;58.60;;;26.50;;
31910;SDS011;18457;52.432;16.914;2022-11-21T05:23:32;57.00;;;26.10;;
31910;SDS011;18457;52.432;16.914;2022-11-21T05:26:04;62.90;;;27.70;;
31910;SDS011;18457;52.432;16.914;2022-11-21T05:28:36;60.60;;;27.10;;
31910;SDS011;18457;52.432;16.914;2022-11-21T05:31:08;63.30;;;26.60;;
31910;SDS011;18457;52.432;16.914;2022-11-21T05:33:39;60.90;;;26.50;;
31910;SDS011;18457;52.432;16.914;2022-11-21T05:36:11;54.00;;;26.60;;
31910;SDS011;18457;52.432;16.914;2022-11-21T05:38:43;59.40;;;25.90;;
31910;SDS011;18457;52.432;16.914;2022-11-21T05:41:14;70.90;;;26.30;;
31910;SDS011;18457;52.432;16.914;2022-11-21T05:43:46;59.30;;;26.30;;
31910;SDS011;18457;52.432;16.914;2022-11-21T05:46:19;56.50;;;26.40;;
31910;SDS011;18457;52.432;16.914;2022-11-21T05:48:52;63.20;;;27.30;;
31910;SDS011;18457;52.432;16.914;2022-11-21T05:51:24;62.80;;;27.50;;
31910;SDS011;18457;52.432;16.914;2022-11-21T05:53:56;67.20;;;27.70;;
31910;SDS011;18457;52.432;16.914;2022-11-21T05:56:29;66.80;;;28.90;;
31910;SDS011;18457;52.432;16.914;2022-11-21T05:59:01;71.50;;;27.50;;
31910;SDS011;18457;52.432;16.914;2022-11-21T06:01:32;59.50;;;25.20;;
31910;SDS011;18457;52.432;16.914;2022-11-21T06:04:22;65.40;;;27.90;;
31910;SDS011;18457;52.432;16.914;2022-11-21T06:06:54;67.00;;;27.20;;
31910;SDS011;18457;52.432;16.914;2022-11-21T06:09:28;64.60;;;28.20;;
31910;SDS011;18457;52.432;16.914;2022-11-21T06:11:59;60.40;;;27.80;;
31910;SDS011;18457;52.432;16.914;2022-11-21T06:14:31;62.60;;;27.80;;
31910;SDS011;18457;52.432;16.914;2022-11-21T06:17:03;68.80;;;28.10;;
31910;SDS011;18457;52.432;16.914;2022-11-21T06:19:35;61.40;;;27.70;;
31910;SDS011;18457;52.432;16.914;2022-11-21T06:22:07;64.90;;;30.60;;
31910;SDS011;18457;52.432;16.914;2022-11-21T06:24:39;72.90;;;28.80;;
31910;SDS011;18457;52.432;16.914;2022-11-21T06:27:11;71.90;;;29.90;;
31910;SDS011;18457;52.432;16.914;2022-11-21T06:29:42;69.60;;;30.90;;
31910;SDS011;18457;52.432;16.914;2022-11-21T06:32:14;71.90;;;30.40;;
31910;SDS011;18457;52.432;16.914;2022-11-21T06:34:46;67.30;;;30.20;;
31910;SDS011;18457;52.432;16.914;2022-11-21T06:37:18;70.90;;;31.40;;
31910;SDS011;18457;52.432;16.914;2022-11-21T06:39:50;74.50;;;32.40;;
31910;SDS011;18457;52.432;16.914;2022-11-21T06:42:22;75.10;;;31.00;;
31910;SDS011;18457;52.432;16.914;2022-11-21T06:44:53;71.80;;;32.10;;
31910;SDS011;18457;52.432;16.914;2022-11-21T06:47:25;70.50;;;31.50;;
31910;SDS011;18457;52.432;16.914;2022-11-21T06:49:57;80.20;;;33.70;;
31910;SDS011;18457;52.432;16.914;2022-11-21T06:52:30;76.00;;;33.20;;
31910;SDS011;18457;52.432;16.914;2022-11-21T06:55:03;77.00;;;33.80;;
31910;SDS011;18457;52.432;16.914;2022-11-21T07:00:08;78.80;;;33.00;;
31910;SDS011;18457;52.432;16.914;2022-11-21T07:02:41;77.80;;;35.70;;
31910;SDS011;18457;52.432;16.914;2022-11-21T07:05:12;78.10;;;36.50;;
31910;SDS011;18457;52.432;16.914;2022-11-21T07:07:44;82.90;;;36.30;;
31910;SDS011;18457;52.432;16.914;2022-11-21T07:10:16;75.90;;;34.90;;
31910;SDS011;18457;52.432;16.914;2022-11-21T07:12:48;86.30;;;38.20;;
31910;SDS011;18457;52.432;16.914;2022-11-21T07:15:38;76.60;;;36.10;;
31910;SDS011;18457;52.432;16.914;2022-11-21T07:18:10;74.30;;;34.70;;
31910;SDS011;18457;52.432;16.914;2022-11-21T07:20:41;71.70;;;29.10;;
31910;SDS011;18457;52.432;16.914;2022-11-21T07:23:14;79.70;;;35.00;;
31910;SDS011;18457;52.432;16.914;2022-11-21T07:25:46;75.70;;;32.90;;
31910;SDS011;18457;52.432;16.914;2022-11-21T07:28:18;78.50;;;34.60;;
31910;SDS011;18457;52.432;16.914;2022-11-21T07:30:54;72.70;;;32.20;;
31910;SDS011;18457;52.432;16.914;2022-11-21T07:33:43;78.30;;;33.90;;
31910;SDS011;18457;52.432;16.914;2022-11-21T07:36:15;72.70;;;32.90;;
31910;SDS011;18457;52.432;16.914;2022-11-21T07:38:47;41.80;;;20.50;;
31910;SDS011;18457;52.432;16.914;2022-11-21T07:41:19;70.60;;;32.20;;
31910;SDS011;18457;52.432;16.914;2022-11-21T07:43:51;64.80;;;30.50;;
31910;SDS011;18457;52.432;16.914;2022-11-21T07:46:23;65.10;;;27.20;;
31910;SDS011;18457;52.432;16.914;2022-11-21T07:48:54;71.20;;;30.80;;
31910;SDS011;18457;52.432;16.914;2022-11-21T07:51:31;75.60;;;34.70;;
31910;SDS011;18457;52.432;16.914;2022-11-21T07:54:03;67.90;;;31.40;;
31910;SDS011;18457;52.432;16.914;2022-11-21T07:56:35;85.70;;;37.20;;
31910;SDS011;18457;52.432;16.914;2022-11-21T07:59:07;78.10;;;36.00;;
31910;SDS011;18457;52.432;16.914;2022-11-21T08:01:39;71.70;;;33.00;;
31910;SDS011;18457;52.432;16.914;2022-11-21T08:04:13;79.50;;;32.60;;
31910;SDS011;18457;52.432;16.914;2022-11-21T08:06:45;70.90;;;31.90;;
31910;SDS011;18457;52.432;16.914;2022-11-21T08:09:17;75.20;;;33.70;;
31910;SDS011;18457;52.432;16.914;2022-11-21T08:11:49;67.50;;;31.30;;
31910;SDS011;18457;52.432;16.914;2022-11-21T08:14:21;73.70;;;32.30;;
31910;SDS011;18457;52.432;16.914;2022-11-21T08:16:53;75.60;;;33.30;;
31910;SDS011;18457;52.432;16.914;2022-11-21T08:19:25;80.00;;;35.20;;
31910;SDS011;18457;52.432;16.914;2022-11-21T08:21:57;76.30;;;35.50;;
31910;SDS011;18457;52.432;16.914;2022-11-21T08:24:29;73.40;;;33.70;;
31910;SDS011;18457;52.432;16.914;2022-11-21T08:27:01;84.20;;;36.90;;
31910;SDS011;18457;52.432;16.914;2022-11-21T08:29:33;80.60;;;34.90;;
31910;SDS011;18457;52.432;16.914;2022-11-21T08:32:05;82.70;;;37.50;;
31910;SDS011;18457;52.432;16.914;2022-11-21T08:34:36;76.60;;;33.50;;
31910;SDS011;18457;52.432;16.914;2022-11-21T08:37:08;58.90;;;25.20;;
31910;SDS011;18457;52.432;16.914;2022-11-21T08:39:40;83.30;;;35.70;;
31910;SDS011;18457;52.432;16.914;2022-11-21T08:42:12;58.10;;;25.50;;
31910;SDS011;18457;52.432;16.914;2022-11-21T08:44:44;74.50;;;33.30;;
31910;SDS011;18457;52.432;16.914;2022-11-21T08:47:16;77.10;;;33.90;;
31910;SDS011;18457;52.432;16.914;2022-11-21T08:49:48;90.10;;;37.00;;
31910;SDS011;18457;52.432;16.914;2022-11-21T08:52:20;55.40;;;26.40;;
31910;SDS011;18457;52.432;16.914;2022-11-21T08:54:52;85.80;;;37.00;;
31910;SDS011;18457;52.432;16.914;2022-11-21T08:57:23;80.40;;;34.50;;
31910;SDS011;18457;52.432;16.914;2022-11-21T08:59:55;81.00;;;36.50;;
31910;SDS011;18457;52.432;16.914;2022-11-21T09:02:27;79.50;;;35.30;;
31910;SDS011;18457;52.432;16.914;2022-11-21T09:04:59;78.90;;;37.40;;
31910;SDS011;18457;52.432;16.914;2022-11-21T09:07:31;78.20;;;37.50;;
31910;SDS011;18457;52.432;16.914;2022-11-21T09:10:04;89.20;;;38.90;;
31910;SDS011;18457;52.432;16.914;2022-11-21T09:12:37;77.30;;;38.90;;
31910;SDS011;18457;52.432;16.914;2022-11-21T09:15:10;87.40;;;39.00;;
31910;SDS011;18457;52.432;16.914;2022-11-21T09:18:00;88.00;;;38.60;;
31910;SDS011;18457;52.432;16.914;2022-11-21T09:20:37;86.50;;;37.90;;
31910;SDS011;18457;52.432;16.914;2022-11-21T09:23:11;84.00;;;37.50;;
31910;SDS011;18457;52.432;16.914;2022-11-21T09:25:44;88.80;;;39.70;;
31910;SDS011;18457;52.432;16.914;2022-11-21T09:28:17;89.00;;;41.20;;
31910;SDS011;18457;52.432;16.914;2022-11-21T09:30:49;67.90;;;28.30;;
31910;SDS011;18457;52.432;16.914;2022-11-21T09:33:20;83.00;;;39.20;;
31910;SDS011;18457;52.432;16.914;2022-11-21T09:35:52;84.50;;;40.00;;
31910;SDS011;18457;52.432;16.914;2022-11-21T09:38:27;86.50;;;40.70;;
31910;SDS011;18457;52.432;16.914;2022-11-21T09:41:01;91.90;;;39.60;;
31910;SDS011;18457;52.432;16.914;2022-11-21T09:44:01;85.70;;;42.10;;
31910;SDS011;18457;52.432;16.914;2022-11-21T09:46:42;94.20;;;43.10;;
31910;SDS011;18457;52.432;16.914;2022-11-21T09:49:16;86.30;;;41.60;;
31910;SDS011;18457;52.432;16.914;2022-11-21T09:51:51;87.70;;;40.40;;
31910;SDS011;18457;52.432;16.914;2022-11-21T09:54:25;87.90;;;41.70;;
31910;SDS011;18457;52.432;16.914;2022-11-21T09:57:01;88.10;;;41.70;;
31910;SDS011;18457;52.432;16.914;2022-11-21T09:59:34;88.00;;;40.80;;
31910;SDS011;18457;52.432;16.914;2022-11-21T10:02:10;92.00;;;41.60;;
31910;SDS011;18457;52.432;16.914;2022-11-21T10:04:46;95.70;;;43.70;;
31910;SDS011;18457;52.432;16.914;2022-11-21T10:07:20;91.50;;;41.40;;
31910;SDS011;18457;52.432;16.914;2022-11-21T10:09:59;92.90;;;41.20;;
31910;SDS011;18457;52.432;16.914;2022-11-21T10:12:48;92.10;;;41.30;;
31910;SDS011;18457;52.432;16.914;2022-11-21T10:15:42;90.30;;;42.60;;
31910;SDS011;18457;52.432;16.914;2022-11-21T10:18:27;89.20;;;39.60;;
31910;SDS011;18457;52.432;16.914;2022-11-21T10:21:10;88.20;;;38.70;;
31910;SDS011;18457;52.432;16.914;2022-11-21T10:23:58;82.60;;;39.70;;
31910;SDS011;18457;52.432;16.914;2022-11-21T10:26:43;89.30;;;40.20;;
31910;SDS011;18457;52.432;16.914;2022-11-21T10:29:21;86.60;;;38.70;;
31910;SDS011;18457;52.432;16.914;2022-11-21T10:32:00;95.10;;;40.80;;
31910;SDS011;18457;52.432;16.914;2022-11-21T10:34:40;88.30;;;39.60;;
31910;SDS011;18457;52.432;16.914;2022-11-21T10:37:12;83.40;;;39.10;;
31910;SDS011;18457;52.432;16.914;2022-11-21T10:39:49;79.00;;;39.00;;
31910;SDS011;18457;52.432;16.914;2022-11-21T10:42:27;86.30;;;41.70;;
31910;SDS011;18457;52.432;16.914;2022-11-21T10:45:04;88.40;;;38.60;;
31910;SDS011;18457;52.432;16.914;2022-11-21T10:47:48;91.30;;;39.60;;
31910;SDS011;18457;52.432;16.914;2022-11-21T10:50:27;93.80;;;40.40;;
31910;SDS011;18457;52.432;16.914;2022-11-21T10:53:11;96.40;;;41.40;;
31910;SDS011;18457;52.432;16.914;2022-11-21T10:56:05;92.80;;;42.90;;
31910;SDS011;18457;52.432;16.914;2022-11-21T10:58:41;93.50;;;42.00;;
31910;SDS011;18457;52.432;16.914;2022-11-21T11:01:25;98.20;;;42.60;;
31910;SDS011;18457;52.432;16.914;2022-11-21T11:07:19;101.10;;;41.40;;
31910;SDS011;18457;52.432;16.914;2022-11-21T11:09:53;91.70;;;39.70;;
31910;SDS011;18457;52.432;16.914;2022-11-21T11:12:56;90.50;;;40.40;;
31910;SDS011;18457;52.432;16.914;2022-11-21T11:16:09;97.00;;;42.60;;
31910;SDS011;18457;52.432;16.914;2022-11-21T11:18:47;93.30;;;43.10;;
31910;SDS011;18457;52.432;16.914;2022-11-21T11:21:25;97.80;;;43.50;;
31910;SDS011;18457;52.432;16.914;2022-11-21T11:24:17;99.80;;;41.60;;
31910;SDS011;18457;52.432;16.914;2022-11-21T11:26:57;88.80;;;41.40;;
31910;SDS011;18457;52.432;16.914;2022-11-21T11:29:30;94.50;;;43.90;;
31910;SDS011;18457;52.432;16.914;2022-11-21T11:32:18;94.10;;;41.00;;
31910;SDS011;18457;52.432;16.914;2022-11-21T11:34:54;96.50;;;42.70;;
31910;SDS011;18457;52.432;16.914;2022-11-21T11:37:31;90.20;;;41.20;;
31910;SDS011;18457;52.432;16.914;2022-11-21T11:40:16;94.20;;;42.10;;
31910;SDS011;18457;52.432;16.914;2022-11-21T11:43:00;112.50;;;47.40;;
31910;SDS011;18457;52.432;16.914;2022-11-21T11:46:21;103.60;;;43.80;;
31910;SDS011;18457;52.432;16.914;2022-11-21T11:49:23;212.30;;;78.90;;
31910;SDS011;18457;52.432;16.914;2022-11-21T11:52:27;235.00;;;83.50;;
31910;SDS011;18457;52.432;16.914;2022-11-21T11:55:02;205.70;;;72.60;;
31910;SDS011;18457;52.432;16.914;2022-11-21T11:57:43;163.40;;;63.30;;
31910;SDS011;18457;52.432;16.914;2022-11-21T12:00:21;141.70;;;57.10;;
31910;SDS011;18457;52.432;16.914;2022-11-21T12:03:01;144.10;;;63.90;;
31910;SDS011;18457;52.432;16.914;2022-11-21T12:05:38;155.80;;;65.90;;
31910;SDS011;18457;52.432;16.914;2022-11-21T12:08:25;110.80;;;49.80;;
31910;SDS011;18457;52.432;16.914;2022-11-21T12:11:29;113.80;;;52.00;;
31910;SDS011;18457;52.432;16.914;2022-11-21T12:14:31;114.40;;;49.30;;
31910;SDS011;18457;52.432;16.914;2022-11-21T12:17:31;109.10;;;46.60;;
31910;SDS011;18457;52.432;16.914;2022-11-21T12:20:12;112.70;;;47.20;;
31910;SDS011;18457;52.432;16.914;2022-11-21T12:22:49;101.80;;;45.50;;
31910;SDS011;18457;52.432;16.914;2022-11-21T12:25:24;110.00;;;46.80;;
31910;SDS011;18457;52.432;16.914;2022-11-21T12:27:59;112.80;;;46.70;;
31910;SDS011;18457;52.432;16.914;2022-11-21T12:30:42;104.40;;;45.30;;
31910;SDS011;18457;52.432;16.914;2022-11-21T12:33:21;106.50;;;46.20;;
31910;SDS011;18457;52.432;16.914;2022-11-21T12:38:50;101.50;;;46.80;;
31910;SDS011;18457;52.432;16.914;2022-11-21T12:41:42;106.40;;;45.60;;
31910;SDS011;18457;52.432;16.914;2022-11-21T12:44:48;120.80;;;48.60;;
31910;SDS011;18457;52.432;16.914;2022-11-21T12:47:35;117.60;;;49.40;;
31910;SDS011;18457;52.432;16.914;2022-11-21T12:50:49;113.50;;;48.20;;
31910;SDS011;18457;52.432;16.914;2022-11-21T12:53:49;111.50;;;47.00;;
31910;SDS011;18457;52.432;16.914;2022-11-21T12:56:53;123.40;;;48.90;;
31910;SDS011;18457;52.432;16.914;2022-11-21T12:59:28;113.50;;;49.60;;
31910;SDS011;18457;52.432;16.914;2022-11-21T13:02:04;118.20;;;50.60;;
31910;SDS011;18457;52.432;16.914;2022-11-21T13:04:48;125.00;;;50.90;;
31910;SDS011;18457;52.432;16.914;2022-11-21T13:07:22;122.00;;;48.20;;
31910;SDS011;18457;52.432;16.914;2022-11-21T13:09:58;123.30;;;48.70;;
31910;SDS011;18457;52.432;16.914;2022-11-21T13:12:35;117.30;;;49.10;;
31910;SDS011;18457;52.432;16.914;2022-11-21T13:15:17;129.90;;;49.40;;
31910;SDS011;18457;52.432;16.914;2022-11-21T13:17:54;124.10;;;52.80;;
31910;SDS011;18457;52.432;16.914;2022-11-21T13:20:32;117.00;;;47.50;;
31910;SDS011;18457;52.432;16.914;2022-11-21T13:23:14;119.60;;;48.70;;
31910;SDS011;18457;52.432;16.914;2022-11-21T13:29:22;133.20;;;53.00;;
31910;SDS011;18457;52.432;16.914;2022-11-21T13:31:54;122.90;;;49.20;;
31910;SDS011;18457;52.432;16.914;2022-11-21T13:34:36;123.70;;;48.70;;
31910;SDS011;18457;52.432;16.914;2022-11-21T13:37:09;118.80;;;50.10;;
31910;SDS011;18457;52.432;16.914;2022-11-21T13:40:16;124.20;;;46.60;;
31910;SDS011;18457;52.432;16.914;2022-11-21T13:43:19;122.70;;;47.80;;
31910;SDS011;18457;52.432;16.914;2022-11-21T13:46:03;129.30;;;48.20;;
31910;SDS011;18457;52.432;16.914;2022-11-21T13:51:46;134.60;;;52.00;;
31910;SDS011;18457;52.432;16.914;2022-11-21T13:54:25;110.90;;;46.30;;
31910;SDS011;18457;52.432;16.914;2022-11-21T13:57:14;121.00;;;49.30;;
31910;SDS011;18457;52.432;16.914;2022-11-21T14:05:58;117.40;;;47.60;;
31910;SDS011;18457;52.432;16.914;2022-11-21T14:08:44;122.70;;;48.20;;
31910;SDS011;18457;52.432;16.914;2022-11-21T14:11:44;130.30;;;46.50;;
31910;SDS011;18457;52.432;16.914;2022-11-21T14:14:29;123.70;;;46.40;;
31910;SDS011;18457;52.432;16.914;2022-11-21T14:17:12;122.70;;;47.30;;
31910;SDS011;18457;52.432;16.914;2022-11-21T14:19:53;119.30;;;47.20;;
31910;SDS011;18457;52.432;16.914;2022-11-21T14:22:30;119.80;;;44.50;;
31910;SDS011;18457;52.432;16.914;2022-11-21T14:25:14;125.40;;;46.70;;
31910;SDS011;18457;52.432;16.914;2022-11-21T14:27:49;115.90;;;47.10;;
31910;SDS011;18457;52.432;16.914;2022-11-21T14:30:30;112.40;;;45.30;;
31910;SDS011;18457;52.432;16.914;2022-11-21T14:33:24;122.00;;;48.10;;
31910;SDS011;18457;52.432;16.914;2022-11-21T14:36:02;116.90;;;44.00;;
31910;SDS011;18457;52.432;16.914;2022-11-21T14:38:40;118.00;;;48.80;;
31910;SDS011;18457;52.432;16.914;2022-11-21T14:41:26;127.00;;;49.00;;
31910;SDS011;18457;52.432;16.914;2022-11-21T14:44:12;120.80;;;47.90;;
31910;SDS011;18457;52.432;16.914;2022-11-21T14:46:49;114.60;;;46.30;;
31910;SDS011;18457;52.432;16.914;2022-11-21T14:49:35;127.80;;;48.70;;
31910;SDS011;18457;52.432;16.914;2022-11-21T14:52:13;131.30;;;52.40;;
31910;SDS011;18457;52.432;16.914;2022-11-21T14:54:48;131.40;;;53.50;;
31910;SDS011;18457;52.432;16.914;2022-11-21T14:57:43;125.80;;;53.20;;
31910;SDS011;18457;52.432;16.914;2022-11-21T15:00:18;132.60;;;51.70;;
31910;SDS011;18457;52.432;16.914;2022-11-21T15:03:15;124.30;;;50.60;;
31910;SDS011;18457;52.432;16.914;2022-11-21T15:05:56;144.10;;;51.90;;
31910;SDS011;18457;52.432;16.914;2022-11-21T15:08:35;130.00;;;50.30;;
31910;SDS011;18457;52.432;16.914;2022-11-21T15:11:30;133.40;;;50.70;;
31910;SDS011;18457;52.432;16.914;2022-11-21T15:14:10;136.50;;;52.90;;
31910;SDS011;18457;52.432;16.914;2022-11-21T15:16:53;133.80;;;52.40;;
31910;SDS011;18457;52.432;16.914;2022-11-21T15:19:30;127.10;;;51.40;;
31910;SDS011;18457;52.432;16.914;2022-11-21T15:22:02;142.00;;;54.50;;
31910;SDS011;18457;52.432;16.914;2022-11-21T15:24:36;101.10;;;40.90;;